sensor_id;sensor_type;location;lat;lon;timestamp;temperature;humidity
9998;DHT22;5038;53.064;8.624;2023-03-23T00:00:19;11.40;99.90
9998;DHT22;5038;53.064;8.624;2023-03-23T00:02:47;11.40;99.90
9998;DHT22;5038;53.064;8.624;2023-03-23T00:05:14;11.40;99.90
9998;DHT22;5038;53.064;8.624;2023-03-23T00:07:41;11.40;99.90
9998;DHT22;5038;53.064;8.624;2023-03-23T00:10:11;11.40;99.90
9998;DHT22;5038;53.064;8.624;2023-03-23T00:12:38;11.40;99.90
9998;DHT22;5038;53.064;8.624;2023-03-23T00:15:08;11.40;99.90
9998;DHT22;5038;53.064;8.624;2023-03-23T00:17:40;11.40;99.90
9998;DHT22;5038;53.064;8.624;2023-03-23T00:20:09;11.40;99.90
9998;DHT22;5038;53.064;8.624;2023-03-23T00:22:38;11.40;99.90
9998;DHT22;5038;53.064;8.624;2023-03-23T00:25:07;11.40;99.90
9998;DHT22;5038;53.064;8.624;2023-03-23T00:27:35;11.40;99.90
9998;DHT22;5038;53.064;8.624;2023-03-23T00:30:02;11.40;99.90
9998;DHT22;5038;53.064;8.624;2023-03-23T00:32:29;11.40;99.90
9998;DHT22;5038;53.064;8.624;2023-03-23T00:34:58;11.40;99.90
9998;DHT22;5038;53.064;8.624;2023-03-23T00:37:25;11.40;99.90
9998;DHT22;5038;53.064;8.624;2023-03-23T00:39:52;11.40;99.90
9998;DHT22;5038;53.064;8.624;2023-03-23T00:42:23;11.40;99.90
9998;DHT22;5038;53.064;8.624;2023-03-23T00:44:50;11.40;99.90
9998;DHT22;5038;53.064;8.624;2023-03-23T00:47:19;11.40;99.90
9998;DHT22;5038;53.064;8.624;2023-03-23T00:49:47;11.40;99.90
9998;DHT22;5038;53.064;8.624;2023-03-23T00:52:18;11.40;99.90
9998;DHT22;5038;53.064;8.624;2023-03-23T00:54:45;11.50;99.90
9998;DHT22;5038;53.064;8.624;2023-03-23T00:57:15;11.50;99.90
9998;DHT22;5038;53.064;8.624;2023-03-23T00:59:44;11.50;99.90
9998;DHT22;5038;53.064;8.624;2023-03-23T01:02:15;11.50;99.90
9998;DHT22;5038;53.064;8.624;2023-03-23T01:04:44;11.50;99.90
9998;DHT22;5038;53.064;8.624;2023-03-23T01:07:20;11.50;99.90
9998;DHT22;5038;53.064;8.624;2023-03-23T01:09:49;11.50;99.90
9998;DHT22;5038;53.064;8.624;2023-03-23T01:12:19;11.50;99.90
9998;DHT22;5038;53.064;8.624;2023-03-23T01:14:50;11.40;99.90
9998;DHT22;5038;53.064;8.624;2023-03-23T01:17:17;11.50;99.90
9998;DHT22;5038;53.064;8.624;2023-03-23T01:19:44;11.50;99.90
9998;DHT22;5038;53.064;8.624;2023-03-23T01:22:12;11.50;99.90
9998;DHT22;5038;53.064;8.624;2023-03-23T01:24:41;11.50;99.90
9998;DHT22;5038;53.064;8.624;2023-03-23T01:27:08;11.50;99.90
9998;DHT22;5038;53.064;8.624;2023-03-23T01:29:35;11.50;99.90
9998;DHT22;5038;53.064;8.624;2023-03-23T01:32:03;11.50;99.90
9998;DHT22;5038;53.064;8.624;2023-03-23T01:34:30;11.50;99.90
9998;DHT22;5038;53.064;8.624;2023-03-23T01:36:57;11.50;99.90
9998;DHT22;5038;53.064;8.624;2023-03-23T01:39:25;11.50;99.90
9998;DHT22;5038;53.064;8.624;2023-03-23T01:41:54;11.50;99.90
9998;DHT22;5038;53.064;8.624;2023-03-23T01:45:17;11.50;99.90
9998;DHT22;5038;53.064;8.624;2023-03-23T01:47:49;11.50;99.90
9998;DHT22;5038;53.064;8.624;2023-03-23T01:50:19;11.40;99.90
9998;DHT22;5038;53.064;8.624;2023-03-23T01:52:49;11.40;99.90
9998;DHT22;5038;53.064;8.624;2023-03-23T01:55:18;11.50;99.90
9998;DHT22;5038;53.064;8.624;2023-03-23T01:57:47;11.40;99.90
9998;DHT22;5038;53.064;8.624;2023-03-23T02:00:15;11.40;99.90
9998;DHT22;5038;53.064;8.624;2023-03-23T02:02:52;11.40;99.90
9998;DHT22;5038;53.064;8.624;2023-03-23T02:05:26;11.50;99.90
9998;DHT22;5038;53.064;8.624;2023-03-23T02:07:59;11.50;99.90
9998;DHT22;5038;53.064;8.624;2023-03-23T02:10:33;11.50;99.90
9998;DHT22;5038;53.064;8.624;2023-03-23T02:13:04;11.50;99.90
9998;DHT22;5038;53.064;8.624;2023-03-23T02:15:39;11.50;99.90
9998;DHT22;5038;53.064;8.624;2023-03-23T02:18:16;11.50;99.90
9998;DHT22;5038;53.064;8.624;2023-03-23T02:24:08;11.50;99.90
9998;DHT22;5038;53.064;8.624;2023-03-23T02:26:50;11.50;99.90
9998;DHT22;5038;53.064;8.624;2023-03-23T02:32:32;11.50;99.90
9998;DHT22;5038;53.064;8.624;2023-03-23T02:35:08;11.50;99.90
9998;DHT22;5038;53.064;8.624;2023-03-23T02:37:44;11.50;99.90
9998;DHT22;5038;53.064;8.624;2023-03-23T02:40:16;11.50;99.90
9998;DHT22;5038;53.064;8.624;2023-03-23T02:42:48;11.50;99.90
9998;DHT22;5038;53.064;8.624;2023-03-23T02:45:17;11.50;99.90
9998;DHT22;5038;53.064;8.624;2023-03-23T02:47:49;11.50;99.90
9998;DHT22;5038;53.064;8.624;2023-03-23T02:50:21;11.50;99.90
9998;DHT22;5038;53.064;8.624;2023-03-23T02:52:49;11.50;99.90
9998;DHT22;5038;53.064;8.624;2023-03-23T02:55:18;11.50;99.90
9998;DHT22;5038;53.064;8.624;2023-03-23T02:57:46;11.50;99.90
9998;DHT22;5038;53.064;8.624;2023-03-23T03:00:16;11.50;99.90
9998;DHT22;5038;53.064;8.624;2023-03-23T03:02:50;11.50;99.90
9998;DHT22;5038;53.064;8.624;2023-03-23T03:05:26;11.50;99.90
9998;DHT22;5038;53.064;8.624;2023-03-23T03:08:07;11.50;99.90
9998;DHT22;5038;53.064;8.624;2023-03-23T03:10:43;11.50;99.90
9998;DHT22;5038;53.064;8.624;2023-03-23T03:13:22;11.50;99.90
9998;DHT22;5038;53.064;8.624;2023-03-23T03:15:55;11.50;99.90
9998;DHT22;5038;53.064;8.624;2023-03-23T03:18:28;11.50;99.90
9998;DHT22;5038;53.064;8.624;2023-03-23T03:21:02;11.40;99.90
9998;DHT22;5038;53.064;8.624;2023-03-23T03:23:33;11.50;99.90
9998;DHT22;5038;53.064;8.624;2023-03-23T03:26:03;11.50;99.90
9998;DHT22;5038;53.064;8.624;2023-03-23T03:28:44;11.50;99.90
9998;DHT22;5038;53.064;8.624;2023-03-23T03:31:17;11.50;99.90
9998;DHT22;5038;53.064;8.624;2023-03-23T03:33:45;11.50;99.90
9998;DHT22;5038;53.064;8.624;2023-03-23T03:36:21;11.50;99.90
9998;DHT22;5038;53.064;8.624;2023-03-23T03:38:51;11.50;99.90
9998;DHT22;5038;53.064;8.624;2023-03-23T03:41:19;11.50;99.90
9998;DHT22;5038;53.064;8.624;2023-03-23T03:43:47;11.50;99.90
9998;DHT22;5038;53.064;8.624;2023-03-23T03:46:15;11.50;99.90
9998;DHT22;5038;53.064;8.624;2023-03-23T03:48:42;11.50;99.90
9998;DHT22;5038;53.064;8.624;2023-03-23T03:51:09;11.50;99.90
9998;DHT22;5038;53.064;8.624;2023-03-23T03:53:42;11.50;99.90
9998;DHT22;5038;53.064;8.624;2023-03-23T03:56:09;11.50;99.90
9998;DHT22;5038;53.064;8.624;2023-03-23T03:58:43;11.70;99.90
9998;DHT22;5038;53.064;8.624;2023-03-23T04:02:08;11.50;99.90
9998;DHT22;5038;53.064;8.624;2023-03-23T04:05:04;11.60;99.90
9998;DHT22;5038;53.064;8.624;2023-03-23T04:07:32;11.50;99.90
9998;DHT22;5038;53.064;8.624;2023-03-23T04:10:01;11.60;99.90
9998;DHT22;5038;53.064;8.624;2023-03-23T04:12:30;11.50;99.90
9998;DHT22;5038;53.064;8.624;2023-03-23T04:14:57;11.50;99.90
9998;DHT22;5038;53.064;8.624;2023-03-23T04:17:32;11.50;99.90
9998;DHT22;5038;53.064;8.624;2023-03-23T04:19:59;11.60;99.90
9998;DHT22;5038;53.064;8.624;2023-03-23T04:22:33;11.60;99.90
9998;DHT22;5038;53.064;8.624;2023-03-23T04:25:03;11.50;99.90
9998;DHT22;5038;53.064;8.624;2023-03-23T04:27:35;11.60;99.90
9998;DHT22;5038;53.064;8.624;2023-03-23T04:30:06;11.60;99.90
9998;DHT22;5038;53.064;8.624;2023-03-23T04:32:49;11.60;99.90
9998;DHT22;5038;53.064;8.624;2023-03-23T04:35:23;11.60;99.90
9998;DHT22;5038;53.064;8.624;2023-03-23T04:38:03;11.60;99.90
9998;DHT22;5038;53.064;8.624;2023-03-23T04:40:32;11.50;99.90
9998;DHT22;5038;53.064;8.624;2023-03-23T04:43:11;11.60;99.90
9998;DHT22;5038;53.064;8.624;2023-03-23T04:45:53;11.60;99.90
9998;DHT22;5038;53.064;8.624;2023-03-23T04:48:23;11.60;99.90
9998;DHT22;5038;53.064;8.624;2023-03-23T04:51:01;11.60;99.90
9998;DHT22;5038;53.064;8.624;2023-03-23T04:53:29;11.60;99.90
9998;DHT22;5038;53.064;8.624;2023-03-23T04:55:58;11.60;99.90
9998;DHT22;5038;53.064;8.624;2023-03-23T04:58:29;11.60;99.90
9998;DHT22;5038;53.064;8.624;2023-03-23T05:01:22;11.60;99.90
9998;DHT22;5038;53.064;8.624;2023-03-23T05:03:59;11.60;99.90
9998;DHT22;5038;53.064;8.624;2023-03-23T05:06:28;11.60;99.90
9998;DHT22;5038;53.064;8.624;2023-03-23T05:09:01;11.60;99.90
9998;DHT22;5038;53.064;8.624;2023-03-23T05:11:31;11.60;99.90
9998;DHT22;5038;53.064;8.624;2023-03-23T05:13:58;11.60;99.90
9998;DHT22;5038;53.064;8.624;2023-03-23T05:16:26;11.60;99.90
9998;DHT22;5038;53.064;8.624;2023-03-23T05:18:55;11.60;99.90
9998;DHT22;5038;53.064;8.624;2023-03-23T05:21:24;11.60;99.90
9998;DHT22;5038;53.064;8.624;2023-03-23T05:23:53;11.60;99.90
9998;DHT22;5038;53.064;8.624;2023-03-23T05:26:23;11.60;99.90
9998;DHT22;5038;53.064;8.624;2023-03-23T05:28:56;11.60;99.90
9998;DHT22;5038;53.064;8.624;2023-03-23T05:31:36;11.60;99.90
9998;DHT22;5038;53.064;8.624;2023-03-23T05:34:04;11.60;99.90
9998;DHT22;5038;53.064;8.624;2023-03-23T05:36:37;11.60;99.90
9998;DHT22;5038;53.064;8.624;2023-03-23T05:39:11;11.60;99.90
9998;DHT22;5038;53.064;8.624;2023-03-23T05:42:10;11.70;99.90
9998;DHT22;5038;53.064;8.624;2023-03-23T05:45:00;11.60;99.90
9998;DHT22;5038;53.064;8.624;2023-03-23T05:47:27;11.60;99.90
9998;DHT22;5038;53.064;8.624;2023-03-23T05:50:01;11.60;99.90
9998;DHT22;5038;53.064;8.624;2023-03-23T05:52:30;11.60;99.90
9998;DHT22;5038;53.064;8.624;2023-03-23T05:54:59;11.60;99.90
9998;DHT22;5038;53.064;8.624;2023-03-23T05:57:27;11.60;99.90
9998;DHT22;5038;53.064;8.624;2023-03-23T06:00:07;11.60;99.90
9998;DHT22;5038;53.064;8.624;2023-03-23T06:02:47;11.60;99.90
9998;DHT22;5038;53.064;8.624;2023-03-23T06:05:26;11.60;99.90
9998;DHT22;5038;53.064;8.624;2023-03-23T06:07:55;11.60;99.90
9998;DHT22;5038;53.064;8.624;2023-03-23T06:10:23;11.60;99.90
9998;DHT22;5038;53.064;8.624;2023-03-23T06:12:55;11.60;99.90
9998;DHT22;5038;53.064;8.624;2023-03-23T06:15:31;11.70;99.90
9998;DHT22;5038;53.064;8.624;2023-03-23T06:17:59;11.60;99.90
9998;DHT22;5038;53.064;8.624;2023-03-23T06:20:33;11.70;99.90
9998;DHT22;5038;53.064;8.624;2023-03-23T06:23:13;11.60;99.90
9998;DHT22;5038;53.064;8.624;2023-03-23T06:25:41;11.70;99.90
9998;DHT22;5038;53.064;8.624;2023-03-23T06:28:10;11.70;99.90
9998;DHT22;5038;53.064;8.624;2023-03-23T06:30:43;11.70;99.90
9998;DHT22;5038;53.064;8.624;2023-03-23T06:33:11;11.70;99.90
9998;DHT22;5038;53.064;8.624;2023-03-23T06:35:58;11.80;99.90
9998;DHT22;5038;53.064;8.624;2023-03-23T06:38:39;11.80;99.90
9998;DHT22;5038;53.064;8.624;2023-03-23T06:41:07;11.80;99.90
9998;DHT22;5038;53.064;8.624;2023-03-23T06:43:34;11.80;99.90
9998;DHT22;5038;53.064;8.624;2023-03-23T06:46:24;11.80;99.90
9998;DHT22;5038;53.064;8.624;2023-03-23T06:48:52;11.80;99.90
9998;DHT22;5038;53.064;8.624;2023-03-23T06:51:25;11.90;99.90
9998;DHT22;5038;53.064;8.624;2023-03-23T06:53:54;11.90;99.90
9998;DHT22;5038;53.064;8.624;2023-03-23T06:56:24;11.90;99.90
9998;DHT22;5038;53.064;8.624;2023-03-23T06:58:52;12.00;99.90
9998;DHT22;5038;53.064;8.624;2023-03-23T07:01:20;12.00;99.90
9998;DHT22;5038;53.064;8.624;2023-03-23T07:03:56;12.00;99.90
9998;DHT22;5038;53.064;8.624;2023-03-23T07:06:35;12.00;99.90
9998;DHT22;5038;53.064;8.624;2023-03-23T07:09:06;12.00;99.90
9998;DHT22;5038;53.064;8.624;2023-03-23T07:11:35;12.00;99.90
9998;DHT22;5038;53.064;8.624;2023-03-23T07:14:16;12.00;99.90
9998;DHT22;5038;53.064;8.624;2023-03-23T07:16:43;12.00;99.90
9998;DHT22;5038;53.064;8.624;2023-03-23T07:19:12;12.00;99.90
9998;DHT22;5038;53.064;8.624;2023-03-23T07:21:39;11.90;99.90
9998;DHT22;5038;53.064;8.624;2023-03-23T07:24:10;11.90;99.90
9998;DHT22;5038;53.064;8.624;2023-03-23T07:27:00;11.90;99.90
9998;DHT22;5038;53.064;8.624;2023-03-23T07:29:28;11.80;99.90
9998;DHT22;5038;53.064;8.624;2023-03-23T07:32:08;11.80;99.90
9998;DHT22;5038;53.064;8.624;2023-03-23T07:34:39;11.70;99.90
9998;DHT22;5038;53.064;8.624;2023-03-23T07:37:39;11.70;99.90
9998;DHT22;5038;53.064;8.624;2023-03-23T07:40:08;11.60;99.90
9998;DHT22;5038;53.064;8.624;2023-03-23T07:42:37;11.60;99.90
9998;DHT22;5038;53.064;8.624;2023-03-23T07:45:13;11.60;99.90
9998;DHT22;5038;53.064;8.624;2023-03-23T07:47:49;11.50;99.90
9998;DHT22;5038;53.064;8.624;2023-03-23T07:50:30;11.50;99.90
9998;DHT22;5038;53.064;8.624;2023-03-23T07:53:19;11.50;99.90
9998;DHT22;5038;53.064;8.624;2023-03-23T07:56:13;10.50;99.90
9998;DHT22;5038;53.064;8.624;2023-03-23T07:58:52;12.00;99.90
9998;DHT22;5038;53.064;8.624;2023-03-23T08:01:20;11.40;99.90
9998;DHT22;5038;53.064;8.624;2023-03-23T08:12:53;11.40;99.90
9998;DHT22;5038;53.064;8.624;2023-03-23T08:15:47;11.40;99.90
9998;DHT22;5038;53.064;8.624;2023-03-23T08:18:24;11.40;99.90
9998;DHT22;5038;53.064;8.624;2023-03-23T08:21:07;11.40;99.90
9998;DHT22;5038;53.064;8.624;2023-03-23T08:23:48;11.40;99.90
9998;DHT22;5038;53.064;8.624;2023-03-23T08:26:27;11.40;99.90
9998;DHT22;5038;53.064;8.624;2023-03-23T08:29:16;11.40;99.90
9998;DHT22;5038;53.064;8.624;2023-03-23T08:31:51;11.30;99.90
9998;DHT22;5038;53.064;8.624;2023-03-23T08:34:38;11.40;99.90
9998;DHT22;5038;53.064;8.624;2023-03-23T08:37:34;11.40;99.90
9998;DHT22;5038;53.064;8.624;2023-03-23T08:40:33;11.40;99.90
9998;DHT22;5038;53.064;8.624;2023-03-23T08:43:18;11.50;99.90
9998;DHT22;5038;53.064;8.624;2023-03-23T08:46:10;11.40;99.90
9998;DHT22;5038;53.064;8.624;2023-03-23T08:49:00;11.50;99.90
9998;DHT22;5038;53.064;8.624;2023-03-23T08:51:56;11.40;99.90
9998;DHT22;5038;53.064;8.624;2023-03-23T08:54:48;11.50;99.90
9998;DHT22;5038;53.064;8.624;2023-03-23T08:57:37;11.50;99.90
9998;DHT22;5038;53.064;8.624;2023-03-23T09:00:24;11.50;99.90
9998;DHT22;5038;53.064;8.624;2023-03-23T09:03:05;11.50;99.90
9998;DHT22;5038;53.064;8.624;2023-03-23T09:05:59;11.50;99.90
9998;DHT22;5038;53.064;8.624;2023-03-23T09:08:35;11.50;99.90
9998;DHT22;5038;53.064;8.624;2023-03-23T09:11:04;11.50;99.90
9998;DHT22;5038;53.064;8.624;2023-03-23T09:13:33;11.50;99.90
9998;DHT22;5038;53.064;8.624;2023-03-23T09:16:00;11.60;99.90
9998;DHT22;5038;53.064;8.624;2023-03-23T09:18:29;11.60;99.90
9998;DHT22;5038;53.064;8.624;2023-03-23T09:20:56;11.60;99.90
9998;DHT22;5038;53.064;8.624;2023-03-23T09:23:24;11.70;99.90
9998;DHT22;5038;53.064;8.624;2023-03-23T09:25:51;11.70;99.90
9998;DHT22;5038;53.064;8.624;2023-03-23T09:28:19;11.70;99.90
9998;DHT22;5038;53.064;8.624;2023-03-23T09:30:47;11.70;99.90
9998;DHT22;5038;53.064;8.624;2023-03-23T09:33:15;11.80;99.90
9998;DHT22;5038;53.064;8.624;2023-03-23T09:35:43;11.80;99.90
9998;DHT22;5038;53.064;8.624;2023-03-23T09:38:11;11.90;99.90
9998;DHT22;5038;53.064;8.624;2023-03-23T09:40:45;12.00;99.90
9998;DHT22;5038;53.064;8.624;2023-03-23T09:43:25;12.00;99.90
9998;DHT22;5038;53.064;8.624;2023-03-23T09:46:03;12.10;99.90
9998;DHT22;5038;53.064;8.624;2023-03-23T09:48:41;12.10;99.90
9998;DHT22;5038;53.064;8.624;2023-03-23T09:51:21;12.10;99.90
9998;DHT22;5038;53.064;8.624;2023-03-23T09:53:59;12.20;99.90
9998;DHT22;5038;53.064;8.624;2023-03-23T09:56:30;12.30;99.90
9998;DHT22;5038;53.064;8.624;2023-03-23T09:59:00;12.30;99.90
9998;DHT22;5038;53.064;8.624;2023-03-23T10:01:33;12.40;99.90
9998;DHT22;5038;53.064;8.624;2023-03-23T10:04:07;12.40;99.90
9998;DHT22;5038;53.064;8.624;2023-03-23T10:06:38;12.50;99.90
9998;DHT22;5038;53.064;8.624;2023-03-23T10:09:05;12.60;99.90
9998;DHT22;5038;53.064;8.624;2023-03-23T10:11:40;12.60;99.90
9998;DHT22;5038;53.064;8.624;2023-03-23T10:17:14;12.70;99.90
9998;DHT22;5038;53.064;8.624;2023-03-23T10:19:47;12.80;99.90
9998;DHT22;5038;53.064;8.624;2023-03-23T10:22:21;12.70;99.90
9998;DHT22;5038;53.064;8.624;2023-03-23T10:24:51;12.80;99.90
9998;DHT22;5038;53.064;8.624;2023-03-23T10:27:26;12.70;99.90
9998;DHT22;5038;53.064;8.624;2023-03-23T10:30:00;12.70;99.90
9998;DHT22;5038;53.064;8.624;2023-03-23T10:32:40;12.70;99.90
9998;DHT22;5038;53.064;8.624;2023-03-23T10:35:12;12.80;99.90
9998;DHT22;5038;53.064;8.624;2023-03-23T10:37:46;12.80;99.90
9998;DHT22;5038;53.064;8.624;2023-03-23T10:40:17;12.90;99.90
9998;DHT22;5038;53.064;8.624;2023-03-23T10:42:46;12.90;99.90
9998;DHT22;5038;53.064;8.624;2023-03-23T10:45:17;12.90;99.90
9998;DHT22;5038;53.064;8.624;2023-03-23T10:47:52;13.00;99.90
9998;DHT22;5038;53.064;8.624;2023-03-23T10:50:24;13.00;99.90
9998;DHT22;5038;53.064;8.624;2023-03-23T10:52:56;13.00;99.90
9998;DHT22;5038;53.064;8.624;2023-03-23T10:55:25;13.10;99.90
9998;DHT22;5038;53.064;8.624;2023-03-23T10:58:03;13.10;99.90
9998;DHT22;5038;53.064;8.624;2023-03-23T11:00:31;13.10;99.90
9998;DHT22;5038;53.064;8.624;2023-03-23T11:03:01;13.10;99.90
9998;DHT22;5038;53.064;8.624;2023-03-23T11:05:35;13.10;99.90
9998;DHT22;5038;53.064;8.624;2023-03-23T11:08:11;13.10;99.90
9998;DHT22;5038;53.064;8.624;2023-03-23T11:10:41;13.20;99.90
9998;DHT22;5038;53.064;8.624;2023-03-23T11:13:13;13.20;99.90
9998;DHT22;5038;53.064;8.624;2023-03-23T11:15:41;13.20;99.90
9998;DHT22;5038;53.064;8.624;2023-03-23T11:18:11;13.30;99.90
9998;DHT22;5038;53.064;8.624;2023-03-23T11:20:41;13.30;99.90
9998;DHT22;5038;53.064;8.624;2023-03-23T11:23:20;13.30;99.90
9998;DHT22;5038;53.064;8.624;2023-03-23T11:25:54;13.40;99.90
9998;DHT22;5038;53.064;8.624;2023-03-23T11:28:26;13.40;99.90
9998;DHT22;5038;53.064;8.624;2023-03-23T11:30:55;13.40;99.90
9998;DHT22;5038;53.064;8.624;2023-03-23T11:33:23;13.50;99.90
9998;DHT22;5038;53.064;8.624;2023-03-23T11:35:53;13.50;99.90
9998;DHT22;5038;53.064;8.624;2023-03-23T11:38:23;13.60;99.90
9998;DHT22;5038;53.064;8.624;2023-03-23T11:40:53;13.70;99.90
9998;DHT22;5038;53.064;8.624;2023-03-23T11:43:22;13.70;99.90
9998;DHT22;5038;53.064;8.624;2023-03-23T11:45:58;13.70;99.90
9998;DHT22;5038;53.064;8.624;2023-03-23T11:48:32;13.70;99.90
9998;DHT22;5038;53.064;8.624;2023-03-23T11:51:04;13.70;99.90
9998;DHT22;5038;53.064;8.624;2023-03-23T11:53:45;13.80;99.90
9998;DHT22;5038;53.064;8.624;2023-03-23T11:56:23;13.80;99.90
9998;DHT22;5038;53.064;8.624;2023-03-23T11:58:52;13.90;99.90
9998;DHT22;5038;53.064;8.624;2023-03-23T12:01:47;14.00;99.90
9998;DHT22;5038;53.064;8.624;2023-03-23T12:04:35;14.00;99.90
9998;DHT22;5038;53.064;8.624;2023-03-23T12:07:14;14.00;99.90
9998;DHT22;5038;53.064;8.624;2023-03-23T12:09:50;14.00;99.90
9998;DHT22;5038;53.064;8.624;2023-03-23T12:12:25;14.00;99.90
9998;DHT22;5038;53.064;8.624;2023-03-23T12:15:08;14.10;99.90
9998;DHT22;5038;53.064;8.624;2023-03-23T12:17:44;14.10;99.90
9998;DHT22;5038;53.064;8.624;2023-03-23T12:20:21;14.20;99.90
9998;DHT22;5038;53.064;8.624;2023-03-23T12:23:02;14.30;99.90
9998;DHT22;5038;53.064;8.624;2023-03-23T12:25:45;14.30;99.90
9998;DHT22;5038;53.064;8.624;2023-03-23T12:28:25;14.40;99.90
9998;DHT22;5038;53.064;8.624;2023-03-23T12:31:01;14.50;99.90
9998;DHT22;5038;53.064;8.624;2023-03-23T12:36:26;14.60;99.90
9998;DHT22;5038;53.064;8.624;2023-03-23T12:39:08;14.60;99.90
9998;DHT22;5038;53.064;8.624;2023-03-23T12:41:45;14.70;99.90
9998;DHT22;5038;53.064;8.624;2023-03-23T12:44:14;14.80;99.90
9998;DHT22;5038;53.064;8.624;2023-03-23T12:47:04;14.90;99.90
9998;DHT22;5038;53.064;8.624;2023-03-23T12:49:37;14.90;99.90
9998;DHT22;5038;53.064;8.624;2023-03-23T12:52:12;14.90;99.90
9998;DHT22;5038;53.064;8.624;2023-03-23T12:54:42;14.90;99.90
9998;DHT22;5038;53.064;8.624;2023-03-23T12:57:22;14.90;99.90
9998;DHT22;5038;53.064;8.624;2023-03-23T12:59:55;14.90;99.90
9998;DHT22;5038;53.064;8.624;2023-03-23T13:02:27;15.00;99.90
9998;DHT22;5038;53.064;8.624;2023-03-23T13:05:00;15.00;99.90
9998;DHT22;5038;53.064;8.624;2023-03-23T13:07:32;15.00;99.90
9998;DHT22;5038;53.064;8.624;2023-03-23T13:10:03;15.10;99.90
9998;DHT22;5038;53.064;8.624;2023-03-23T13:12:34;15.10;99.90
9998;DHT22;5038;53.064;8.624;2023-03-23T13:15:16;15.10;99.90
9998;DHT22;5038;53.064;8.624;2023-03-23T13:17:51;15.10;99.90
9998;DHT22;5038;53.064;8.624;2023-03-23T13:20:57;15.10;99.90
9998;DHT22;5038;53.064;8.624;2023-03-23T13:23:29;15.10;99.90
9998;DHT22;5038;53.064;8.624;2023-03-23T13:26:00;15.00;99.90
9998;DHT22;5038;53.064;8.624;2023-03-23T13:28:47;15.00;99.90
9998;DHT22;5038;53.064;8.624;2023-03-23T13:31:17;14.90;99.90
9998;DHT22;5038;53.064;8.624;2023-03-23T13:33:50;14.80;99.90
9998;DHT22;5038;53.064;8.624;2023-03-23T13:36:26;14.70;99.90
9998;DHT22;5038;53.064;8.624;2023-03-23T13:38:53;14.50;99.90
9998;DHT22;5038;53.064;8.624;2023-03-23T13:41:21;14.30;99.90
9998;DHT22;5038;53.064;8.624;2023-03-23T13:43:50;14.00;99.90
9998;DHT22;5038;53.064;8.624;2023-03-23T13:46:29;13.80;99.90
9998;DHT22;5038;53.064;8.624;2023-03-23T13:49:16;13.50;99.90
9998;DHT22;5038;53.064;8.624;2023-03-23T13:52:06;13.20;99.90
9998;DHT22;5038;53.064;8.624;2023-03-23T13:54:42;13.00;99.90
9998;DHT22;5038;53.064;8.624;2023-03-23T13:57:48;12.80;99.90
9998;DHT22;5038;53.064;8.624;2023-03-23T14:00:34;12.70;99.90
9998;DHT22;5038;53.064;8.624;2023-03-23T14:03:12;12.50;99.90
9998;DHT22;5038;53.064;8.624;2023-03-23T14:05:41;12.40;99.90
9998;DHT22;5038;53.064;8.624;2023-03-23T14:08:14;12.20;99.90
9998;DHT22;5038;53.064;8.624;2023-03-23T14:10:52;12.10;99.90
9998;DHT22;5038;53.064;8.624;2023-03-23T14:13:24;12.00;99.90
9998;DHT22;5038;53.064;8.624;2023-03-23T14:15:59;12.00;99.90
9998;DHT22;5038;53.064;8.624;2023-03-23T14:18:31;12.10;99.90
9998;DHT22;5038;53.064;8.624;2023-03-23T14:21:02;12.20;99.90
9998;DHT22;5038;53.064;8.624;2023-03-23T14:23:32;12.30;99.90
9998;DHT22;5038;53.064;8.624;2023-03-23T14:26:01;12.40;99.90
9998;DHT22;5038;53.064;8.624;2023-03-23T14:28:37;12.50;99.90
9998;DHT22;5038;53.064;8.624;2023-03-23T14:31:14;12.60;99.90
9998;DHT22;5038;53.064;8.624;2023-03-23T14:33:42;12.70;99.90
9998;DHT22;5038;53.064;8.624;2023-03-23T14:36:10;12.70;99.90
9998;DHT22;5038;53.064;8.624;2023-03-23T14:38:37;12.70;99.90
9998;DHT22;5038;53.064;8.624;2023-03-23T14:41:05;12.80;99.90
9998;DHT22;5038;53.064;8.624;2023-03-23T14:43:34;12.90;99.90
9998;DHT22;5038;53.064;8.624;2023-03-23T14:46:07;13.00;99.90
9998;DHT22;5038;53.064;8.624;2023-03-23T14:48:35;13.10;99.90
9998;DHT22;5038;53.064;8.624;2023-03-23T14:51:04;13.10;99.90
9998;DHT22;5038;53.064;8.624;2023-03-23T14:53:35;13.20;99.90
9998;DHT22;5038;53.064;8.624;2023-03-23T14:56:09;13.20;99.90
9998;DHT22;5038;53.064;8.624;2023-03-23T14:58:37;13.40;99.90
9998;DHT22;5038;53.064;8.624;2023-03-23T15:01:09;13.40;99.90
9998;DHT22;5038;53.064;8.624;2023-03-23T15:03:40;13.50;99.90
9998;DHT22;5038;53.064;8.624;2023-03-23T15:06:14;13.60;99.90
9998;DHT22;5038;53.064;8.624;2023-03-23T15:08:42;13.70;99.90
9998;DHT22;5038;53.064;8.624;2023-03-23T15:11:20;13.70;99.90
9998;DHT22;5038;53.064;8.624;2023-03-23T15:13:51;13.80;99.90
9998;DHT22;5038;53.064;8.624;2023-03-23T15:16:24;13.80;99.90
9998;DHT22;5038;53.064;8.624;2023-03-23T15:18:54;13.90;99.90
9998;DHT22;5038;53.064;8.624;2023-03-23T15:21:27;14.00;99.90
9998;DHT22;5038;53.064;8.624;2023-03-23T15:23:55;13.90;99.90
9998;DHT22;5038;53.064;8.624;2023-03-23T15:26:31;13.90;99.90
9998;DHT22;5038;53.064;8.624;2023-03-23T15:29:15;13.90;99.90
9998;DHT22;5038;53.064;8.624;2023-03-23T15:31:46;13.90;99.90
9998;DHT22;5038;53.064;8.624;2023-03-23T15:34:26;13.90;99.90
9998;DHT22;5038;53.064;8.624;2023-03-23T15:36:57;13.80;99.90
9998;DHT22;5038;53.064;8.624;2023-03-23T15:39:25;13.80;99.90
9998;DHT22;5038;53.064;8.624;2023-03-23T15:41:53;13.80;99.90
9998;DHT22;5038;53.064;8.624;2023-03-23T15:44:24;13.80;99.90
9998;DHT22;5038;53.064;8.624;2023-03-23T15:47:02;13.80;99.90
9998;DHT22;5038;53.064;8.624;2023-03-23T15:49:30;13.80;99.90
9998;DHT22;5038;53.064;8.624;2023-03-23T15:51:57;13.80;99.90
9998;DHT22;5038;53.064;8.624;2023-03-23T15:54:24;13.80;99.90
9998;DHT22;5038;53.064;8.624;2023-03-23T15:56:56;13.80;99.90
9998;DHT22;5038;53.064;8.624;2023-03-23T15:59:23;13.80;99.90
9998;DHT22;5038;53.064;8.624;2023-03-23T16:01:52;13.90;99.90
9998;DHT22;5038;53.064;8.624;2023-03-23T16:04:21;13.90;99.90
9998;DHT22;5038;53.064;8.624;2023-03-23T16:06:50;14.00;99.90
9998;DHT22;5038;53.064;8.624;2023-03-23T16:09:19;14.00;99.90
9998;DHT22;5038;53.064;8.624;2023-03-23T16:11:47;13.90;99.90
9998;DHT22;5038;53.064;8.624;2023-03-23T16:14:15;13.90;99.90
9998;DHT22;5038;53.064;8.624;2023-03-23T16:16:45;13.90;99.90
9998;DHT22;5038;53.064;8.624;2023-03-23T16:19:18;13.80;99.90
9998;DHT22;5038;53.064;8.624;2023-03-23T16:21:50;13.80;99.90
9998;DHT22;5038;53.064;8.624;2023-03-23T16:24:18;13.80;99.90
9998;DHT22;5038;53.064;8.624;2023-03-23T16:26:46;13.70;99.90
9998;DHT22;5038;53.064;8.624;2023-03-23T16:29:15;13.70;99.90
9998;DHT22;5038;53.064;8.624;2023-03-23T16:32:04;13.70;99.90
9998;DHT22;5038;53.064;8.624;2023-03-23T16:34:33;13.70;99.90
9998;DHT22;5038;53.064;8.624;2023-03-23T16:37:03;13.70;99.90
9998;DHT22;5038;53.064;8.624;2023-03-23T16:39:32;13.60;99.90
9998;DHT22;5038;53.064;8.624;2023-03-23T16:42:00;13.60;99.90
9998;DHT22;5038;53.064;8.624;2023-03-23T16:44:29;13.50;99.90
9998;DHT22;5038;53.064;8.624;2023-03-23T16:46:57;13.50;99.90
9998;DHT22;5038;53.064;8.624;2023-03-23T16:49:25;13.50;99.90
9998;DHT22;5038;53.064;8.624;2023-03-23T16:51:54;13.50;99.90
9998;DHT22;5038;53.064;8.624;2023-03-23T16:54:22;13.50;99.90
9998;DHT22;5038;53.064;8.624;2023-03-23T16:56:51;13.40;99.90
9998;DHT22;5038;53.064;8.624;2023-03-23T16:59:19;13.40;99.90
9998;DHT22;5038;53.064;8.624;2023-03-23T17:01:47;13.40;99.90
9998;DHT22;5038;53.064;8.624;2023-03-23T17:04:15;13.40;99.90